Hauptseite
METAR-TAF:

METAR-TAF

Flughäfen :

Flughafen Saratow

Saratow, Russland

Breite: 51-34-12N, Länge: 046-04-12E, Höhe: 166 m

Beobachtung

Neuester Wetterbericht von vor 48 Minuten, um 04:30 UTC
Wind 4 kt aus Süd
Temperatur 15°C
Luftfeuchtigkeit 82%
Luftdruck 1019 hPa
Sichtweite 10 km oder mehr
keine Wolken unter 1500 m und keine Kumulonimbus oder Gewitterwolken

METAR: UWSS 230430Z 19002MPS CAVOK 15/12 Q1019 R12/010095 NOSIG RMK QFE752

Zeit: 08:18 (05:18 UTC)

Prognose

Neuester Wetterbericht von vor 3 Stunden und 18 Minuten, um 02:00 UTC
Gültige Prognose vom 23 um 03 UTC bis 23 um 12 UTC
Wind 12 kt aus Süd
Sichtweite 10 km oder mehr
Aufgelockert bewölkt in der Höhe von 3000 ft
Zeitweise
vom 23 um 08 UTC bis 23 um 12 UTC
Wind 12 kt aus Süd, Böen bis zu 21 kt

TAF: UWSS 230200Z 2303/2312 19006MPS 9999 SCT030 TEMPO 2308/2312 19006G11MPS

Wetterbeobachtungen und Prognosen von mehr als 4000 Flughäfen (METAR und TAF Bericht).

Die verfügbaren Stationen werden durch gelbe und rote Markierungen auf der Karte dargestellt.

Führen Sie die Maus auf sie, um den Namen der Station zu sehen.

Darauf klicken, um die Beobachtung von Wetterbeobachtungen und Prognosen zu sehen.

Um die Karte zu ändern : klicken Sie auf den grünen Tasten mit einem schwarzen Kreuz Zum Vergrößern, auf den grünen Button mit einem Gedankenstrich zu verkleinern, oder auf die grünen Pfeile für benachbarte Karten.


METAR-TAF: